createdAt,value
2023-02-26T00:00:18.362Z,91.37
2023-02-26T00:01:18.343Z,91.37
2023-02-26T00:02:18.344Z,91.43
2023-02-26T00:03:18.360Z,91.53
2023-02-26T00:04:18.276Z,91.53
2023-02-26T00:05:18.430Z,91.43
2023-02-26T00:06:18.275Z,91.33
2023-02-26T00:07:18.253Z,90.80
2023-02-26T00:08:18.280Z,90.59
2023-02-26T00:09:18.212Z,90.59
2023-02-26T00:10:18.255Z,90.28
2023-02-26T00:11:18.214Z,90.28
2023-02-26T00:12:18.223Z,90.38
2023-02-26T00:13:18.185Z,90.17
2023-02-26T00:14:18.180Z,89.97
2023-02-26T00:15:18.162Z,90.17
2023-02-26T00:16:18.176Z,89.97
2023-02-26T00:17:18.385Z,89.97
2023-02-26T00:18:18.150Z,89.86
2023-02-26T00:19:18.081Z,89.97
2023-02-26T00:20:18.086Z,89.97
2023-02-26T00:21:18.076Z,89.97
2023-02-26T00:22:18.072Z,89.97
2023-02-26T00:23:18.090Z,89.86
2023-02-26T00:24:17.996Z,90.07
2023-02-26T00:25:18.046Z,89.86
2023-02-26T00:26:17.980Z,89.75
2023-02-26T00:27:18.025Z,90.07
2023-02-26T00:28:17.995Z,90.17
2023-02-26T00:29:17.993Z,90.07
2023-02-26T00:30:17.949Z,90.07
2023-02-26T00:31:18.799Z,89.86
2023-02-26T00:32:18.052Z,89.65
2023-02-26T00:33:17.938Z,89.54
2023-02-26T00:34:17.896Z,89.75
2023-02-26T00:35:17.959Z,89.75
2023-02-26T00:36:17.881Z,89.86
2023-02-26T00:37:17.862Z,90.07
2023-02-26T00:38:17.824Z,89.75
2023-02-26T00:39:17.873Z,89.75
2023-02-26T00:40:17.840Z,89.54
2023-02-26T00:41:17.980Z,89.50
2023-02-26T00:42:17.802Z,89.82
2023-02-26T00:43:17.800Z,89.97
2023-02-26T00:44:17.870Z,89.97
2023-02-26T00:45:17.782Z,90.07
2023-02-26T00:46:17.758Z,90.17
2023-02-26T00:47:17.805Z,90.17
2023-02-26T00:48:17.720Z,89.86
2023-02-26T00:49:17.716Z,89.86
2023-02-26T00:50:17.707Z,90.07
2023-02-26T00:51:17.686Z,90.07
2023-02-26T00:52:17.638Z,90.07
2023-02-26T00:53:17.707Z,90.07
2023-02-26T00:54:17.652Z,90.38
2023-02-26T00:55:17.632Z,90.49
2023-02-26T00:56:17.610Z,90.59
2023-02-26T00:57:17.628Z,90.70
2023-02-26T00:58:17.589Z,90.95
2023-02-26T00:59:17.740Z,90.95
2023-02-26T01:00:17.571Z,90.59
2023-02-26T01:01:17.626Z,90.64
2023-02-26T01:02:17.538Z,90.84
2023-02-26T01:03:17.523Z,91.05
2023-02-26T01:04:17.489Z,90.84
2023-02-26T01:05:17.569Z,90.95
2023-02-26T01:06:17.449Z,90.95
2023-02-26T01:07:17.501Z,91.05
2023-02-26T01:08:17.452Z,91.05
2023-02-26T01:09:17.463Z,90.91
2023-02-26T01:10:17.418Z,90.70
2023-02-26T01:11:17.428Z,90.59
2023-02-26T01:12:17.394Z,90.49
2023-02-26T01:13:17.420Z,90.49
2023-02-26T01:14:17.367Z,90.59
2023-02-26T01:15:17.387Z,90.38
2023-02-26T01:16:17.379Z,90.38
2023-02-26T01:17:17.375Z,90.70
2023-02-26T01:18:17.336Z,90.49
2023-02-26T01:19:17.583Z,89.97
2023-02-26T01:20:17.271Z,89.65
2023-02-26T01:21:17.321Z,89.65
2023-02-26T01:22:17.259Z,89.34
2023-02-26T01:23:17.327Z,89.09
2023-02-26T01:24:17.236Z,89.12
2023-02-26T01:25:17.233Z,89.23
2023-02-26T01:26:17.207Z,89.44
2023-02-26T01:27:17.231Z,89.65
2023-02-26T01:28:17.187Z,89.86
2023-02-26T01:29:17.238Z,90.11
2023-02-26T01:30:17.157Z,90.42
2023-02-26T01:31:17.191Z,90.64
2023-02-26T01:32:17.223Z,90.74
2023-02-26T01:33:17.147Z,90.78
2023-02-26T01:34:17.082Z,90.89
2023-02-26T01:35:17.256Z,91.35
2023-02-26T01:36:17.092Z,91.77
2023-02-26T01:37:17.088Z,92.19
2023-02-26T01:38:17.079Z,92.19
2023-02-26T01:39:17.055Z,92.29
2023-02-26T01:40:17.061Z,92.50
2023-02-26T01:41:17.169Z,92.40
2023-02-26T01:42:17.009Z,92.50
2023-02-26T01:43:16.997Z,92.50
2023-02-26T01:44:16.958Z,92.71
2023-02-26T01:45:16.994Z,92.71
2023-02-26T01:46:17.012Z,92.82
2023-02-26T01:47:17.076Z,92.92
2023-02-26T01:48:16.964Z,92.92
2023-02-26T01:49:16.932Z,92.92
2023-02-26T01:50:16.908Z,92.82
2023-02-26T01:51:16.895Z,92.92
2023-02-26T01:52:16.851Z,93.02
2023-02-26T01:53:16.947Z,93.13
2023-02-26T01:54:16.836Z,93.18
2023-02-26T01:55:16.859Z,93.18
2023-02-26T01:56:16.810Z,93.28
2023-02-26T01:57:16.813Z,93.28
2023-02-26T01:58:16.773Z,93.49
2023-02-26T01:59:16.850Z,93.49
2023-02-26T02:00:16.785Z,93.28
2023-02-26T02:01:16.776Z,93.18
2023-02-26T02:02:16.765Z,93.11
2023-02-26T02:03:16.874Z,93.11
2023-02-26T02:04:16.709Z,93.01
2023-02-26T02:05:16.850Z,93.22
2023-02-26T02:06:16.683Z,93.53
2023-02-26T02:07:16.733Z,93.74
2023-02-26T02:08:16.688Z,93.74
2023-02-26T02:09:16.667Z,93.79
2023-02-26T02:10:16.628Z,93.79
2023-02-26T02:11:16.690Z,93.79
2023-02-26T02:12:16.603Z,93.79
2023-02-26T02:13:16.640Z,93.79
2023-02-26T02:14:16.698Z,93.93
2023-02-26T02:15:16.601Z,94.35
2023-02-26T02:16:16.595Z,94.46
2023-02-26T02:17:16.580Z,94.56
2023-02-26T02:18:16.539Z,94.78
2023-02-26T02:19:16.533Z,94.94
2023-02-26T02:20:16.486Z,95.15
2023-02-26T02:21:16.539Z,94.90
2023-02-26T02:22:16.455Z,94.43
2023-02-26T02:23:16.519Z,94.01
2023-02-26T02:24:16.465Z,93.59
2023-02-26T02:25:16.451Z,93.49
2023-02-26T02:26:16.438Z,93.59
2023-02-26T02:27:16.425Z,93.70
2023-02-26T02:28:16.362Z,93.74
2023-02-26T02:29:16.542Z,93.74
2023-02-26T02:30:16.399Z,93.95
2023-02-26T02:31:16.428Z,94.06
2023-02-26T02:32:16.460Z,94.06
2023-02-26T02:33:16.380Z,94.06
2023-02-26T02:34:16.305Z,94.17
2023-02-26T02:35:16.360Z,94.27
2023-02-26T02:36:16.325Z,94.27
2023-02-26T02:37:16.293Z,94.37
2023-02-26T02:38:16.290Z,94.48
2023-02-26T02:39:16.255Z,94.48
2023-02-26T02:40:16.213Z,94.37
2023-02-26T02:41:16.305Z,94.48
2023-02-26T02:42:16.192Z,94.48
2023-02-26T02:43:16.266Z,94.48
2023-02-26T02:44:16.190Z,94.31
2023-02-26T02:45:16.189Z,94.42
2023-02-26T02:46:16.299Z,94.42
2023-02-26T02:47:16.336Z,94.73
2023-02-26T02:48:16.135Z,94.94
2023-02-26T02:49:16.147Z,95.04
2023-02-26T02:50:16.158Z,95.36
2023-02-26T02:51:16.078Z,95.47
2023-02-26T02:52:16.054Z,95.47
2023-02-26T02:53:16.219Z,95.57
2023-02-26T02:54:16.037Z,95.68
2023-02-26T02:55:16.061Z,95.68
2023-02-26T02:56:16.024Z,95.68
2023-02-26T02:57:16.029Z,95.89
2023-02-26T02:58:15.993Z,95.99
2023-02-26T02:59:16.160Z,96.05
2023-02-26T03:00:15.953Z,95.95
2023-02-26T03:01:16.044Z,95.84
2023-02-26T03:02:16.171Z,95.74
2023-02-26T03:03:15.952Z,95.59
2023-02-26T03:04:15.892Z,95.28
2023-02-26T03:05:15.986Z,95.17
2023-02-26T03:06:15.883Z,95.06
2023-02-26T03:07:15.926Z,94.96
2023-02-26T03:08:15.894Z,94.96
2023-02-26T03:09:15.881Z,94.96
2023-02-26T03:10:15.868Z,94.65
2023-02-26T03:11:15.887Z,94.54
2023-02-26T03:12:15.808Z,94.39
2023-02-26T03:13:15.842Z,94.29
2023-02-26T03:14:15.784Z,94.18
2023-02-26T03:15:15.850Z,93.97
2023-02-26T03:16:15.808Z,93.80
2023-02-26T03:17:16.027Z,93.70
2023-02-26T03:18:15.758Z,93.70
2023-02-26T03:19:15.738Z,93.70
2023-02-26T03:20:15.732Z,93.80
2023-02-26T03:21:15.747Z,94.01
2023-02-26T03:22:15.681Z,94.12
2023-02-26T03:23:15.733Z,94.23
2023-02-26T03:24:15.697Z,94.01
2023-02-26T03:25:15.670Z,93.91
2023-02-26T03:26:15.635Z,93.91
2023-02-26T03:27:15.651Z,93.91
2023-02-26T03:28:15.587Z,93.80
2023-02-26T03:29:15.655Z,93.80
2023-02-26T03:30:15.557Z,93.80
2023-02-26T03:31:15.679Z,93.80
2023-02-26T03:32:15.665Z,93.70
2023-02-26T03:33:15.593Z,93.70
2023-02-26T03:34:15.517Z,93.80
2023-02-26T03:35:15.668Z,93.91
2023-02-26T03:36:15.522Z,94.01
2023-02-26T03:37:15.548Z,94.01
2023-02-26T03:38:15.515Z,94.12
2023-02-26T03:39:15.479Z,94.23
2023-02-26T03:40:15.433Z,94.12
2023-02-26T03:41:15.587Z,94.23
2023-02-26T03:42:15.408Z,94.12
2023-02-26T03:43:15.451Z,94.12
2023-02-26T03:44:15.418Z,94.01
2023-02-26T03:45:15.409Z,94.01
2023-02-26T03:46:15.424Z,94.06
2023-02-26T03:47:15.407Z,94.27
2023-02-26T03:48:15.338Z,94.58
2023-02-26T03:49:15.427Z,94.69
2023-02-26T03:50:15.342Z,94.79
2023-02-26T03:51:15.330Z,95.00
2023-02-26T03:52:15.287Z,95.10
2023-02-26T03:53:15.367Z,95.42
2023-02-26T03:54:15.246Z,95.10
2023-02-26T03:55:15.319Z,95.10
2023-02-26T03:56:15.264Z,95.32
2023-02-26T03:57:15.254Z,95.32
2023-02-26T03:58:15.243Z,95.42
2023-02-26T03:59:15.341Z,95.42
2023-02-26T04:00:15.178Z,95.36
2023-02-26T04:01:15.218Z,95.36
2023-02-26T04:02:15.162Z,95.57
2023-02-26T04:03:15.190Z,95.68
2023-02-26T04:04:15.205Z,95.74
2023-02-26T04:05:15.272Z,95.42
2023-02-26T04:06:15.096Z,95.32
2023-02-26T04:07:15.137Z,95.10
2023-02-26T04:08:15.103Z,95.21
2023-02-26T04:09:16.178Z,95.32
2023-02-26T04:10:15.067Z,95.42
2023-02-26T04:11:15.082Z,95.42
2023-02-26T04:12:15.045Z,95.53
2023-02-26T04:13:15.076Z,95.42
2023-02-26T04:14:14.998Z,95.32
2023-02-26T04:15:15.041Z,95.26
2023-02-26T04:16:15.044Z,95.36
2023-02-26T04:17:15.011Z,95.57
2023-02-26T04:18:14.977Z,95.78
2023-02-26T04:19:14.967Z,95.99
2023-02-26T04:20:14.914Z,95.89
2023-02-26T04:21:14.965Z,95.68
2023-02-26T04:22:14.947Z,95.57
2023-02-26T04:23:14.911Z,95.78
2023-02-26T04:24:14.900Z,95.78
2023-02-26T04:25:14.894Z,95.89
2023-02-26T04:26:14.879Z,95.99
2023-02-26T04:27:14.864Z,96.10
2023-02-26T04:28:14.879Z,96.20
2023-02-26T04:29:14.828Z,96.16
2023-02-26T04:30:14.858Z,95.99
2023-02-26T04:31:14.838Z,95.89
2023-02-26T04:32:15.021Z,95.89
2023-02-26T04:33:14.786Z,95.78
2023-02-26T04:34:14.771Z,95.89
2023-02-26T04:35:14.783Z,96.10
2023-02-26T04:36:14.844Z,95.99
2023-02-26T04:37:14.698Z,95.99
2023-02-26T04:38:14.719Z,96.16
2023-02-26T04:39:14.689Z,95.95
2023-02-26T04:40:14.700Z,95.95
2023-02-26T04:41:14.757Z,95.95
2023-02-26T04:42:14.697Z,95.84
2023-02-26T04:43:14.607Z,95.74
2023-02-26T04:44:14.621Z,95.74
2023-02-26T04:45:14.616Z,95.95
2023-02-26T04:46:14.649Z,95.74
2023-02-26T04:47:14.655Z,95.64
2023-02-26T04:48:14.604Z,95.64
2023-02-26T04:49:14.530Z,95.74
2023-02-26T04:50:14.596Z,95.74
2023-02-26T04:51:14.516Z,95.74
2023-02-26T04:52:14.560Z,95.74
2023-02-26T04:53:14.548Z,95.84
2023-02-26T04:54:14.532Z,95.64
2023-02-26T04:55:14.474Z,95.64
2023-02-26T04:56:14.465Z,95.64
2023-02-26T04:57:14.446Z,95.53
2023-02-26T04:58:14.436Z,95.64
2023-02-26T04:59:14.471Z,95.64
2023-02-26T05:00:14.441Z,95.74
2023-02-26T05:01:14.395Z,95.74
2023-02-26T05:02:14.430Z,95.64
2023-02-26T05:03:14.363Z,95.74
2023-02-26T05:04:14.399Z,95.84
2023-02-26T05:05:14.466Z,95.95
2023-02-26T05:06:14.335Z,96.05
2023-02-26T05:07:14.334Z,96.26
2023-02-26T05:08:14.346Z,96.26
2023-02-26T05:09:14.258Z,96.26
2023-02-26T05:10:14.309Z,96.05
2023-02-26T05:11:14.293Z,95.95
2023-02-26T05:12:14.278Z,95.95
2023-02-26T05:13:14.238Z,96.05
2023-02-26T05:14:14.267Z,96.16
2023-02-26T05:15:14.230Z,96.10
2023-02-26T05:16:14.289Z,96.10
2023-02-26T05:17:14.254Z,96.31
2023-02-26T05:18:14.202Z,96.51
2023-02-26T05:19:14.189Z,96.62
2023-02-26T05:20:14.239Z,96.62
2023-02-26T05:21:14.134Z,96.73
2023-02-26T05:22:14.166Z,96.94
2023-02-26T05:23:14.133Z,96.94
2023-02-26T05:24:14.121Z,97.05
2023-02-26T05:25:14.105Z,96.83
2023-02-26T05:26:14.165Z,96.73
2023-02-26T05:27:14.080Z,96.62
2023-02-26T05:28:14.090Z,96.62
2023-02-26T05:29:14.053Z,96.62
2023-02-26T05:30:14.061Z,96.51
2023-02-26T05:31:14.029Z,96.51
2023-02-26T05:32:14.109Z,96.62
2023-02-26T05:33:13.998Z,96.73
2023-02-26T05:34:13.987Z,96.62
2023-02-26T05:35:14.109Z,96.62
2023-02-26T05:36:13.995Z,96.62
2023-02-26T05:37:13.918Z,96.62
2023-02-26T05:38:13.967Z,96.62
2023-02-26T05:39:13.894Z,96.73
2023-02-26T05:40:13.926Z,96.73
2023-02-26T05:41:14.003Z,96.69
2023-02-26T05:42:13.904Z,96.37
2023-02-26T05:43:13.840Z,96.26
2023-02-26T05:44:13.863Z,96.16
2023-02-26T05:45:13.840Z,96.16
2023-02-26T05:46:13.880Z,96.16
2023-02-26T05:47:13.863Z,96.37
2023-02-26T05:48:13.844Z,96.26
2023-02-26T05:49:13.756Z,96.26
2023-02-26T05:50:13.803Z,96.31
2023-02-26T05:51:13.751Z,96.41
2023-02-26T05:52:13.759Z,96.41
2023-02-26T05:53:13.793Z,96.73
2023-02-26T05:54:13.729Z,96.83
2023-02-26T05:55:13.709Z,96.83
2023-02-26T05:56:13.733Z,96.83
2023-02-26T05:57:13.665Z,96.73
2023-02-26T05:58:13.701Z,96.62
2023-02-26T05:59:13.688Z,96.62
2023-02-26T06:00:13.678Z,96.62
2023-02-26T06:01:13.620Z,96.73
2023-02-26T06:02:13.725Z,96.67
2023-02-26T06:03:13.610Z,96.56
2023-02-26T06:04:13.595Z,96.77
2023-02-26T06:05:13.621Z,96.67
2023-02-26T06:06:13.576Z,96.81
2023-02-26T06:07:13.574Z,97.03
2023-02-26T06:08:13.580Z,97.13
2023-02-26T06:09:13.506Z,97.24
2023-02-26T06:10:13.619Z,97.13
2023-02-26T06:11:13.617Z,97.55
2023-02-26T06:12:13.507Z,97.97
2023-02-26T06:13:13.505Z,98.03
2023-02-26T06:14:13.516Z,98.03
2023-02-26T06:15:13.448Z,97.82
2023-02-26T06:16:13.489Z,97.61
2023-02-26T06:17:13.448Z,97.36
2023-02-26T06:18:13.413Z,97.15
2023-02-26T06:19:13.417Z,96.94
2023-02-26T06:20:13.492Z,96.94
2023-02-26T06:21:13.352Z,96.83
2023-02-26T06:22:13.395Z,96.88
2023-02-26T06:23:13.361Z,96.77
2023-02-26T06:24:13.342Z,96.88
2023-02-26T06:25:13.507Z,96.83
2023-02-26T06:26:13.320Z,96.77
2023-02-26T06:27:13.297Z,96.77
2023-02-26T06:28:13.330Z,96.88
2023-02-26T06:29:13.297Z,96.88
2023-02-26T06:30:13.312Z,96.88
2023-02-26T06:31:13.269Z,96.98
2023-02-26T06:32:13.331Z,96.98
2023-02-26T06:33:13.236Z,96.88
2023-02-26T06:34:13.220Z,96.98
2023-02-26T06:35:13.242Z,97.19
2023-02-26T06:36:13.230Z,97.19
2023-02-26T06:37:13.146Z,97.19
2023-02-26T06:38:13.187Z,97.09
2023-02-26T06:39:13.132Z,97.09
2023-02-26T06:40:13.264Z,96.98
2023-02-26T06:41:13.184Z,96.83
2023-02-26T06:42:13.090Z,96.62
2023-02-26T06:43:13.087Z,96.62
2023-02-26T06:44:13.110Z,96.62
2023-02-26T06:45:13.047Z,96.62
2023-02-26T06:46:13.093Z,96.51
2023-02-26T06:47:13.089Z,96.41
2023-02-26T06:48:13.076Z,96.47
2023-02-26T06:49:12.999Z,96.26
2023-02-26T06:50:13.109Z,95.95
2023-02-26T06:51:13.003Z,95.74
2023-02-26T06:52:13.001Z,95.53
2023-02-26T06:53:13.092Z,95.32
2023-02-26T06:54:12.958Z,95.38
2023-02-26T06:55:12.962Z,95.28
2023-02-26T06:56:12.951Z,95.17
2023-02-26T06:57:12.912Z,94.96
2023-02-26T06:58:12.981Z,94.81
2023-02-26T06:59:12.977Z,94.49
2023-02-26T07:00:13.088Z,94.29
2023-02-26T07:01:12.897Z,94.08
2023-02-26T07:02:12.917Z,93.72
2023-02-26T07:03:12.817Z,93.40
2023-02-26T07:04:12.829Z,93.19
2023-02-26T07:05:12.950Z,92.99
2023-02-26T07:06:26.415Z,92.77
2023-02-26T07:07:13.800Z,92.57
2023-02-26T07:08:12.818Z,92.46
2023-02-26T07:09:12.755Z,92.52
2023-02-26T07:10:12.959Z,92.06
2023-02-26T07:11:12.816Z,91.64
2023-02-26T07:12:12.727Z,90.87
2023-02-26T07:13:12.710Z,90.45
2023-02-26T07:14:12.696Z,90.34
2023-02-26T07:15:12.672Z,90.38
2023-02-26T07:16:12.693Z,90.80
2023-02-26T07:17:12.778Z,91.22
2023-02-26T07:18:12.645Z,91.33
2023-02-26T07:19:12.635Z,91.12
2023-02-26T07:20:12.645Z,90.97
2023-02-26T07:21:12.585Z,90.66
2023-02-26T07:22:12.614Z,90.51
2023-02-26T07:23:12.592Z,90.23
2023-02-26T07:24:12.561Z,90.34
2023-02-26T07:25:12.546Z,90.45
2023-02-26T07:26:12.540Z,90.20
2023-02-26T07:27:12.526Z,90.30
2023-02-26T07:28:12.538Z,90.45
2023-02-26T07:29:12.505Z,90.55
2023-02-26T07:30:12.512Z,90.55
2023-02-26T07:31:12.530Z,90.76
2023-02-26T07:32:12.516Z,90.87
2023-02-26T07:33:13.744Z,90.76
2023-02-26T07:34:12.452Z,90.76
2023-02-26T07:35:12.452Z,90.51
2023-02-26T07:36:12.434Z,90.20
2023-02-26T07:37:12.364Z,89.95
2023-02-26T07:38:12.409Z,89.84
2023-02-26T07:39:12.332Z,89.17
2023-02-26T07:40:12.350Z,89.00
2023-02-26T07:41:12.467Z,88.48
2023-02-26T07:42:12.308Z,88.69
2023-02-26T07:43:12.327Z,88.90
2023-02-26T07:44:12.377Z,88.86
2023-02-26T07:45:12.286Z,88.19
2023-02-26T07:46:12.416Z,87.42
2023-02-26T07:47:12.251Z,86.79
2023-02-26T07:48:12.263Z,86.37
2023-02-26T07:49:12.225Z,85.50
2023-02-26T07:50:12.255Z,85.18
2023-02-26T07:51:12.180Z,85.08
2023-02-26T07:52:12.200Z,85.22
2023-02-26T07:53:12.231Z,85.89
2023-02-26T07:54:12.168Z,85.78
2023-02-26T07:55:12.177Z,86.93
2023-02-26T07:56:12.196Z,87.46
2023-02-26T07:57:12.121Z,86.37
2023-02-26T07:58:12.128Z,85.39
2023-02-26T07:59:12.106Z,84.52
2023-02-26T08:00:12.083Z,84.10
2023-02-26T08:01:12.140Z,84.45
2023-02-26T08:02:12.054Z,84.49
2023-02-26T08:03:12.062Z,85.18
2023-02-26T08:04:12.128Z,85.29
2023-02-26T08:05:12.041Z,85.08
2023-02-26T08:06:12.023Z,85.29
2023-02-26T08:07:11.993Z,85.29
2023-02-26T08:08:11.999Z,85.81
2023-02-26T08:09:11.948Z,85.91
2023-02-26T08:10:11.984Z,84.87
2023-02-26T08:11:11.952Z,85.91
2023-02-26T08:12:11.970Z,86.13
2023-02-26T08:13:11.972Z,85.71
2023-02-26T08:14:11.938Z,85.60
2023-02-26T08:15:11.879Z,85.18
2023-02-26T08:16:11.956Z,84.87
2023-02-26T08:17:11.925Z,84.34
2023-02-26T08:18:11.873Z,85.29
2023-02-26T08:19:11.812Z,85.08
2023-02-26T08:20:15.908Z,84.83
2023-02-26T08:21:12.495Z,84.27
2023-02-26T08:22:11.887Z,84.34
2023-02-26T08:23:11.807Z,83.40
2023-02-26T08:24:11.776Z,82.98
2023-02-26T08:25:11.753Z,82.63
2023-02-26T08:26:11.741Z,82.59
2023-02-26T08:27:13.606Z,81.62
2023-02-26T08:28:11.761Z,80.19
2023-02-26T08:29:11.697Z,79.98
2023-02-26T08:30:11.722Z,81.34
2023-02-26T08:31:11.767Z,81.02
2023-02-26T08:32:11.864Z,80.30
2023-02-26T08:33:11.655Z,79.88
2023-02-26T08:34:12.369Z,80.19
2023-02-26T08:35:11.724Z,80.05
2023-02-26T08:36:11.635Z,79.22
2023-02-26T08:37:11.622Z,78.97
2023-02-26T08:38:11.563Z,79.28
2023-02-26T08:39:11.601Z,78.83
2023-02-26T08:40:13.488Z,78.63
2023-02-26T08:41:11.560Z,78.90
2023-02-26T08:42:11.542Z,78.48
2023-02-26T08:43:11.540Z,75.81
2023-02-26T08:44:11.501Z,75.12
2023-02-26T08:45:11.891Z,74.08
2023-02-26T08:46:11.485Z,71.56
2023-02-26T08:47:12.465Z,70.57
2023-02-26T08:48:11.477Z,68.12
2023-02-26T08:49:11.848Z,68.49
2023-02-26T08:50:11.429Z,67.77
2023-02-26T08:51:11.402Z,65.45
2023-02-26T08:52:11.381Z,67.57
2023-02-26T08:53:11.466Z,67.54
2023-02-26T08:54:11.367Z,67.61
2023-02-26T08:55:11.372Z,67.16
2023-02-26T08:56:11.343Z,66.41
2023-02-26T08:57:11.349Z,66.10
2023-02-26T08:58:11.284Z,66.24
2023-02-26T08:59:11.449Z,63.28
2023-02-26T09:00:11.300Z,63.35
2023-02-26T09:01:11.324Z,63.67
2023-02-26T09:02:11.385Z,63.43
2023-02-26T09:03:11.358Z,62.81
2023-02-26T09:04:11.244Z,62.99
2023-02-26T09:05:11.392Z,61.98
2023-02-26T09:06:11.205Z,61.47
2023-02-26T09:07:11.232Z,61.78
2023-02-26T09:08:11.195Z,61.57
2023-02-26T09:09:11.183Z,62.08
2023-02-26T09:10:11.135Z,62.37
2023-02-26T09:11:11.203Z,60.93
2023-02-26T09:12:11.155Z,61.59
2023-02-26T09:13:11.107Z,59.56
2023-02-26T09:14:11.102Z,60.69
2023-02-26T09:15:11.093Z,60.56
2023-02-26T09:16:11.080Z,60.28
2023-02-26T09:17:11.115Z,59.77
2023-02-26T09:18:11.010Z,60.17
2023-02-26T09:19:11.059Z,60.05
2023-02-26T09:20:11.016Z,60.09
2023-02-26T09:21:11.006Z,58.93
2023-02-26T09:22:10.995Z,57.31
2023-02-26T09:23:11.120Z,58.03
2023-02-26T09:24:10.937Z,58.03
2023-02-26T09:25:10.978Z,58.34
2023-02-26T09:26:10.939Z,57.62
2023-02-26T09:27:10.927Z,57.01
2023-02-26T09:28:10.912Z,56.80
2023-02-26T09:29:10.946Z,56.80
2023-02-26T09:30:10.852Z,57.57
2023-02-26T09:31:10.957Z,57.34
2023-02-26T09:32:10.968Z,57.00
2023-02-26T09:33:10.846Z,55.64
2023-02-26T09:34:11.647Z,54.05
2023-02-26T09:35:10.841Z,55.57
2023-02-26T09:36:10.775Z,56.15
2023-02-26T09:37:10.824Z,53.81
2023-02-26T09:38:10.764Z,54.10
2023-02-26T09:39:10.792Z,53.61
2023-02-26T09:40:10.748Z,54.23
2023-02-26T09:41:10.773Z,53.45
2023-02-26T09:42:10.720Z,55.72
2023-02-26T09:43:10.703Z,54.36
2023-02-26T09:44:10.665Z,54.36
2023-02-26T09:45:10.709Z,53.61
2023-02-26T09:46:10.657Z,52.79
2023-02-26T09:47:10.800Z,52.97
2023-02-26T09:48:10.642Z,52.97
2023-02-26T09:49:10.625Z,52.66
2023-02-26T09:50:10.612Z,54.90
2023-02-26T09:51:10.619Z,54.46
2023-02-26T09:52:10.567Z,53.28
2023-02-26T09:53:10.659Z,52.15
2023-02-26T09:54:10.557Z,53.08
2023-02-26T09:55:10.574Z,52.84
2023-02-26T09:56:10.534Z,51.97
2023-02-26T09:57:10.526Z,52.20
2023-02-26T09:58:10.516Z,52.07
2023-02-26T09:59:10.570Z,51.76
2023-02-26T10:00:10.485Z,53.10
2023-02-26T10:01:10.473Z,52.97
2023-02-26T10:02:10.492Z,53.46
2023-02-26T10:03:10.442Z,51.02
2023-02-26T10:04:10.724Z,52.02
2023-02-26T10:05:14.530Z,51.18
2023-02-26T10:06:11.128Z,50.97
2023-02-26T10:07:10.753Z,51.44
2023-02-26T10:08:10.400Z,50.59
2023-02-26T10:09:10.366Z,50.16
2023-02-26T10:10:10.364Z,49.34
2023-02-26T10:11:10.467Z,50.06
2023-02-26T10:12:10.324Z,48.63
2023-02-26T10:13:10.363Z,48.34
2023-02-26T10:14:10.305Z,48.93
2023-02-26T10:15:10.296Z,48.65
2023-02-26T10:16:12.547Z,50.57
2023-02-26T10:17:10.323Z,49.22
2023-02-26T10:18:10.259Z,49.40
2023-02-26T10:19:10.269Z,49.09
2023-02-26T10:20:10.233Z,47.97
2023-02-26T10:21:10.210Z,48.86
2023-02-26T10:22:10.226Z,47.15
2023-02-26T10:23:10.327Z,48.28
2023-02-26T10:24:10.139Z,51.04
2023-02-26T10:25:10.184Z,51.61
2023-02-26T10:26:10.135Z,50.86
2023-02-26T10:27:10.156Z,50.71
2023-02-26T10:28:10.106Z,50.92
2023-02-26T10:29:10.119Z,50.60
2023-02-26T10:30:10.063Z,51.48
2023-02-26T10:31:10.164Z,52.15
2023-02-26T10:32:10.139Z,51.39
2023-02-26T10:33:10.044Z,50.54
2023-02-26T10:34:10.024Z,50.01
2023-02-26T10:35:10.075Z,49.49
2023-02-26T10:36:09.977Z,49.67
2023-02-26T10:37:10.015Z,49.47
2023-02-26T10:38:09.946Z,48.60
2023-02-26T10:39:10.003Z,49.06
2023-02-26T10:40:10.003Z,50.18
2023-02-26T10:41:10.048Z,48.63
2023-02-26T10:42:09.913Z,48.44
2023-02-26T10:43:09.927Z,50.40
2023-02-26T10:44:09.863Z,51.09
2023-02-26T10:45:09.914Z,51.79
2023-02-26T10:46:09.880Z,51.53
2023-02-26T10:47:09.985Z,54.02
2023-02-26T10:48:09.836Z,56.05
2023-02-26T10:49:09.817Z,57.65
2023-02-26T10:50:09.802Z,56.60
2023-02-26T10:51:09.802Z,58.10
2023-02-26T10:52:09.755Z,60.41
2023-02-26T10:53:09.904Z,59.81
2023-02-26T10:54:09.729Z,58.59
2023-02-26T10:55:09.765Z,55.98
2023-02-26T10:56:09.768Z,55.13
2023-02-26T10:57:09.739Z,56.85
2023-02-26T10:58:09.730Z,59.50
2023-02-26T10:59:09.783Z,60.04
2023-02-26T11:00:09.668Z,61.86
2023-02-26T11:01:09.772Z,61.31
2023-02-26T11:02:09.710Z,61.10
2023-02-26T11:03:09.662Z,58.73
2023-02-26T11:04:09.644Z,54.85
2023-02-26T11:05:11.849Z,53.15
2023-02-26T11:06:09.591Z,51.81
2023-02-26T11:07:09.662Z,53.09
2023-02-26T11:08:09.592Z,54.84
2023-02-26T11:09:09.587Z,54.97
2023-02-26T11:10:09.576Z,54.66
2023-02-26T11:11:09.595Z,53.23
2023-02-26T11:12:09.537Z,52.28
2023-02-26T11:13:09.558Z,50.79
2023-02-26T11:14:09.507Z,51.71
2023-02-26T11:15:09.537Z,52.73
2023-02-26T11:16:09.556Z,53.17
2023-02-26T11:17:09.531Z,53.50
2023-02-26T11:18:09.430Z,53.92
2023-02-26T11:19:09.497Z,53.92
2023-02-26T11:20:09.437Z,54.28
2023-02-26T11:21:09.432Z,52.84
2023-02-26T11:22:09.430Z,52.22
2023-02-26T11:23:09.453Z,52.91
2023-02-26T11:24:09.377Z,53.74
2023-02-26T11:25:09.401Z,55.77
2023-02-26T11:26:09.344Z,54.94
2023-02-26T11:27:09.375Z,58.07
2023-02-26T11:28:09.341Z,59.52
2023-02-26T11:29:09.435Z,58.38
2023-02-26T11:30:09.302Z,57.40
2023-02-26T11:31:09.675Z,60.51
2023-02-26T11:32:09.632Z,60.93
2023-02-26T11:33:09.309Z,60.51
2023-02-26T11:34:09.255Z,60.82
2023-02-26T11:35:09.366Z,62.24
2023-02-26T11:36:09.221Z,60.14
2023-02-26T11:37:09.245Z,61.38
2023-02-26T11:38:09.196Z,61.80
2023-02-26T11:39:09.212Z,59.60
2023-02-26T11:40:09.469Z,60.42
2023-02-26T11:41:09.177Z,60.01
2023-02-26T11:42:09.128Z,60.66
2023-02-26T11:43:09.109Z,62.04
2023-02-26T11:44:09.057Z,62.76
2023-02-26T11:45:09.131Z,60.93
2023-02-26T11:46:09.082Z,62.09
2023-02-26T11:47:13.193Z,62.71
2023-02-26T11:48:09.057Z,61.88
2023-02-26T11:49:09.038Z,63.65
2023-02-26T11:50:09.024Z,62.61
2023-02-26T11:51:09.009Z,61.05
2023-02-26T11:52:08.973Z,58.57
2023-02-26T11:53:09.045Z,59.09
2023-02-26T11:54:08.948Z,59.16
2023-02-26T11:55:08.988Z,59.55
2023-02-26T11:56:08.936Z,61.31
2023-02-26T11:57:08.936Z,59.45
2023-02-26T11:58:08.913Z,58.72
2023-02-26T11:59:08.941Z,58.72
2023-02-26T12:00:09.197Z,59.24
2023-02-26T12:01:08.898Z,59.24
2023-02-26T12:02:08.857Z,59.83
2023-02-26T12:03:08.874Z,59.24
2023-02-26T12:04:08.835Z,59.96
2023-02-26T12:05:08.857Z,59.14
2023-02-26T12:06:08.786Z,59.75
2023-02-26T12:07:08.837Z,59.86
2023-02-26T12:08:08.787Z,60.69
2023-02-26T12:09:08.767Z,61.93
2023-02-26T12:10:08.751Z,61.72
2023-02-26T12:11:08.845Z,62.76
2023-02-26T12:12:08.697Z,61.72
2023-02-26T12:13:08.734Z,62.97
2023-02-26T12:14:08.670Z,61.83
2023-02-26T12:15:08.713Z,61.83
2023-02-26T12:16:08.723Z,59.45
2023-02-26T12:17:08.768Z,59.78
2023-02-26T12:18:08.645Z,61.96
2023-02-26T12:19:08.635Z,63.51
2023-02-26T12:20:08.591Z,62.58
2023-02-26T12:21:08.633Z,59.27
2023-02-26T12:22:08.599Z,59.30
2023-02-26T12:23:08.617Z,58.57
2023-02-26T12:24:08.540Z,60.46
2023-02-26T12:25:08.590Z,60.85
2023-02-26T12:26:08.511Z,60.74
2023-02-26T12:27:08.547Z,62.82
2023-02-26T12:28:08.518Z,63.72
2023-02-26T12:29:08.611Z,63.41
2023-02-26T12:30:08.471Z,62.37
2023-02-26T12:31:08.566Z,61.76
2023-02-26T12:32:08.531Z,62.48
2023-02-26T12:33:08.483Z,65.07
2023-02-26T12:34:08.394Z,63.82
2023-02-26T12:35:08.504Z,62.06
2023-02-26T12:36:08.396Z,63.17
2023-02-26T12:37:08.405Z,62.35
2023-02-26T12:38:08.346Z,63.15
2023-02-26T12:39:08.420Z,62.81
2023-02-26T12:40:08.340Z,60.63
2023-02-26T12:41:08.503Z,61.25
2023-02-26T12:42:08.345Z,62.08
2023-02-26T12:43:08.379Z,61.98
2023-02-26T12:44:08.290Z,62.01
2023-02-26T12:45:08.360Z,62.04
2023-02-26T12:46:08.263Z,63.69
2023-02-26T12:47:08.331Z,64.70
2023-02-26T12:48:08.279Z,64.28
2023-02-26T12:49:08.256Z,63.25
2023-02-26T12:50:08.246Z,61.69
2023-02-26T12:51:08.220Z,61.69
2023-02-26T12:52:08.183Z,64.28